Latest Weather Observations for Busselton Jetty

IDW60801

Issued at 6:34 am WST Sunday 25 June 2017 (issued every 30 minutes, with the page automatically refreshed every 10 minutes)

About weather observations | Map of weather stations | Latest weather observations for WA | Other Formats
Station Details ID: 009937 Name: BUSSELTON JETTY Lat: -33.63 Lon: 115.34 Height: 3.0 m
Data from the previous 72 hours. | See also: Recent months at Busselton Jetty
Date/Time
WST
Temp
°C
App
Temp
°C
Dew
Point
°C
Rel
Hum
%
Delta-T
°C
Wind Press
QNH
hPa
Press
MSL
hPa
Rain since
9am
mm
Dir  Spd
km/h
Gust
km/h
Spd
kts
Gust
kts
25/06:30am - - - - - SSE 15 17 8 9 - - -
25/06:00am - - - - - SSE 15 17 8 9 - - -
25/05:30am - - - - - S 17 20 9 11 - - -
25/05:00am - - - - - S 15 19 8 10 - - -
25/04:30am - - - - - S 15 19 8 10 - - -
25/04:00am - - - - - SSE 15 17 8 9 - - -
25/03:30am - - - - - S 15 17 8 9 - - -
25/03:00am - - - - - SE 15 17 8 9 - - -
25/02:30am - - - - - ESE 15 17 8 9 - - -
25/02:00am - - - - - SE 15 19 8 10 - - -
25/01:30am - - - - - SE 13 17 7 9 - - -
25/01:00am - - - - - SE 15 19 8 10 - - -
25/12:30am - - - - - SSE 15 17 8 9 - - -
25/12:00am - - - - - SSE 13 19 7 10 - - -
 
Date/Time
WST
Temp
°C
App
Temp
°C
Dew
Point
°C
Rel
Hum
%
Delta-T
°C
Wind Press
QNH
hPa
Press
MSL
hPa
Rain since
9am
mm
Dir  Spd
km/h
Gust
km/h
Spd
kts
Gust
kts
24/11:30pm - - - - - SSE 13 17 7 9 - - -
24/11:00pm - - - - - SSE 15 17 8 9 - - -
24/10:30pm - - - - - S 13 17 7 9 - - -
24/10:00pm - - - - - SE 13 15 7 8 - - -
24/09:30pm - - - - - SE 13 17 7 9 - - -
24/09:00pm - - - - - SE 17 19 9 10 - - -
24/08:30pm - - - - - SSE 17 22 9 12 - - -
24/08:00pm - - - - - SSE 24 32 13 17 - - -
24/07:30pm - - - - - SSE 22 28 12 15 - - -
24/07:00pm - - - - - SSE 30 37 16 20 - - -
24/06:30pm - - - - - SSE 32 41 17 22 - - -
24/06:00pm - - - - - SSE 32 41 17 22 - - -
24/05:30pm - - - - - SSE 24 33 13 18 - - -
24/05:00pm - - - - - S 28 33 15 18 - - -
24/04:30pm - - - - - SSE 19 28 10 15 - - -
24/04:00pm - - - - - SSE 20 28 11 15 - - -
24/03:30pm - - - - - SSE 19 26 10 14 - - -
24/03:00pm - - - - - SSE 22 28 12 15 - - -
24/02:30pm - - - - - SE 24 30 13 16 - - -
24/02:00pm - - - - - SE 26 32 14 17 - - -
24/01:30pm - - - - - SE 22 30 12 16 - - -
24/01:00pm - - - - - ESE 24 30 13 16 - - -
24/12:30pm - - - - - SE 24 30 13 16 - - -
24/12:00pm - - - - - SE 17 20 9 11 - - -
24/11:30am - - - - - SE 17 22 9 12 - - -
24/11:00am - - - - - SE 15 19 8 10 - - -
24/10:30am - - - - - ESE 19 22 10 12 - - -
24/10:00am - - - - - ESE 17 19 9 10 - - -
24/09:30am - - - - - SE 17 19 9 10 - - -
24/09:00am - - - - - SE 20 26 11 14 - - -
24/08:30am - - - - - SSE 17 19 9 10 - - -
24/08:00am - - - - - SSE 15 17 8 9 - - -
24/07:30am - - - - - SSE 15 19 8 10 - - -
24/07:00am - - - - - SE 17 20 9 11 - - -
24/06:30am - - - - - SE 19 20 10 11 - - -
24/06:00am - - - - - SE 17 20 9 11 - - -
24/05:30am - - - - - SSE 19 20 10 11 - - -
24/05:00am - - - - - SE 17 20 9 11 - - -
24/04:30am - - - - - SSE 17 19 9 10 - - -
24/04:00am - - - - - SSE 17 19 9 10 - - -
24/03:30am - - - - - SSE 15 19 8 10 - - -
24/03:00am - - - - - SSE 15 20 8 11 - - -
24/02:30am - - - - - SE 15 17 8 9 - - -
24/02:00am - - - - - ESE 15 19 8 10 - - -
24/01:30am - - - - - SE 17 19 9 10 - - -
24/01:00am - - - - - SSE 15 19 8 10 - - -
24/12:30am - - - - - SSE 13 15 7 8 - - -
24/12:00am - - - - - SSE 13 17 7 9 - - -
 
Date/Time
WST
Temp
°C
App
Temp
°C
Dew
Point
°C
Rel
Hum
%
Delta-T
°C
Wind Press
QNH
hPa
Press
MSL
hPa
Rain since
9am
mm
Dir  Spd
km/h
Gust
km/h
Spd
kts
Gust
kts
23/11:30pm - - - - - SSE 15 19 8 10 - - -
23/11:00pm - - - - - SSE 15 19 8 10 - - -
23/10:30pm - - - - - SSE 11 15 6 8 - - -
23/10:00pm - - - - - SE 13 15 7 8 - - -
23/09:30pm - - - - - SE 11 13 6 7 - - -
23/09:00pm - - - - - SE 13 17 7 9 - - -
23/08:30pm - - - - - SE 17 20 9 11 - - -
23/08:00pm - - - - - SE 19 24 10 13 - - -
23/07:30pm - - - - - SSE 22 28 12 15 - - -
23/07:00pm - - - - - SE 22 30 12 16 - - -
23/06:30pm - - - - - SSE 22 28 12 15 - - -
23/06:00pm - - - - - SE 20 28 11 15 - - -
23/05:30pm - - - - - SE 24 30 13 16 - - -
23/05:00pm - - - - - SE 30 37 16 20 - - -
23/04:30pm - - - - - SE 35 43 19 23 - - -
23/04:00pm - - - - - SE 32 39 17 21 - - -
23/03:30pm - - - - - SE 33 41 18 22 - - -
23/03:00pm - - - - - SE 35 44 19 24 - - -
23/02:30pm - - - - - SSE 39 48 21 26 - - -
23/02:00pm - - - - - SE 37 48 20 26 - - -
23/01:30pm - - - - - SE 37 48 20 26 - - -
23/01:00pm - - - - - SE 37 48 20 26 - - -
23/12:30pm - - - - - SE 39 54 21 29 - - -
23/12:00pm - - - - - SE 32 41 17 22 - - -
23/11:30am - - - - - SE 39 52 21 28 - - -
23/11:03am - - - - - SE 32 50 17 27 - - -
23/11:00am - - - - - SSE 32 44 17 24 - - -
23/10:30am - - - - - SE 37 52 20 28 - - -
23/10:05am - - - - - SE 37 56 20 30 - - -
23/10:00am - - - - - SE 37 50 20 27 - - -
23/09:30am - - - - - SSE 37 46 20 25 - - -
23/09:00am - - - - - SSE 33 41 18 22 - - -
23/08:30am - - - - - SSE 32 41 17 22 - - -
23/08:00am - - - - - SSE 32 39 17 21 - - -
23/07:30am - - - - - SSE 32 37 17 20 - - -
23/07:00am - - - - - SSE 28 35 15 19 - - -
23/06:30am - - - - - SSE 30 35 16 19 - - -
23/06:00am - - - - - SSE 33 43 18 23 - - -
23/05:30am - - - - - SSE 33 41 18 22 - - -
23/05:00am - - - - - SSE 32 37 17 20 - - -
23/04:30am - - - - - SSE 28 33 15 18 - - -
23/04:00am - - - - - SSE 32 39 17 21 - - -
23/03:30am - - - - - SSE 32 39 17 21 - - -
23/03:00am - - - - - SSE 32 39 17 21 - - -
23/02:30am - - - - - SE 32 39 17 21 - - -
23/02:00am - - - - - SSE 30 39 16 21 - - -
23/01:30am - - - - - SSE 30 35 16 19 - - -
23/01:00am - - - - - SSE 28 37 15 20 - - -
23/12:30am - - - - - SSE 32 43 17 23 - - -
23/12:00am - - - - - SSE 32 41 17 22 - - -
 
Date/Time
WST
Temp
°C
App
Temp
°C
Dew
Point
°C
Rel
Hum
%
Delta-T
°C
Wind Press
QNH
hPa
Press
MSL
hPa
Rain since
9am
mm
Dir  Spd
km/h
Gust
km/h
Spd
kts
Gust
kts
22/11:30pm - - - - - SSE 32 41 17 22 - - -
22/11:00pm - - - - - SSE 32 46 17 25 - - -
22/10:30pm - - - - - SSE 32 43 17 23 - - -
22/10:00pm - - - - - SSE 32 41 17 22 - - -
22/09:30pm - - - - - SSE 35 44 19 24 - - -
22/09:00pm - - - - - SSE 41 59 22 32 - - -
22/08:57pm - - - - - SSE 41 59 22 32 - - -
22/08:30pm - - - - - SSE 37 54 20 29 - - -
22/08:29pm - - - - - SSE 35 54 19 29 - - -
22/08:00pm - - - - - SSE 35 52 19 28 - - -
22/07:30pm - - - - - SSE 43 65 23 35 - - -
22/07:26pm - - - - - SSE 43 65 23 35 - - -
22/07:00pm - - - - - SSE 39 54 21 29 - - -
22/06:30pm - - - - - SSE 33 48 18 26 - - -
22/06:00pm - - - - - SSE 37 52 20 28 - - -
22/05:40pm - - - - - SSE 39 59 21 32 - - -
22/05:30pm - - - - - SSE 39 52 21 28 - - -
22/05:00pm - - - - - S 41 56 22 30 - - -
22/04:42pm - - - - - SSE 46 65 25 35 - - -
22/04:30pm - - - - - SSE 52 67 28 36 - - -
22/04:18pm - - - - - SSE 32 54 17 29 - - -
22/04:00pm - - - - - SSE 32 41 17 22 - - -
22/03:30pm - - - - - SSE 33 46 18 25 - - -
22/03:00pm - - - - - SSE 37 56 20 30 - - -
22/02:33pm - - - - - SSE 32 52 17 28 - - -
22/02:30pm - - - - - SSE 32 43 17 23 - - -
22/02:00pm - - - - - SSE 33 44 18 24 - - -
22/01:42pm - - - - - SSE 33 52 18 28 - - -
22/01:30pm - - - - - S 33 41 18 22 - - -
22/01:00pm - - - - - SE 35 48 19 26 - - -
22/12:30pm - - - - - SE 35 48 19 26 - - -
22/12:00pm - - - - - SE 37 46 20 25 - - -
22/11:30am - - - - - SE 35 46 19 25 - - -
22/11:00am - - - - - SE 37 50 20 27 - - -
22/10:30am - - - - - SE 39 50 21 27 - - -
22/10:00am - - - - - SE 39 50 21 27 - - -
22/09:30am - - - - - SE 35 46 19 25 - - -
22/09:00am - - - - - SE 33 39 18 21 - - -
22/08:30am - - - - - SE 28 33 15 18 - - -
22/08:00am - - - - - SSE 30 39 16 21 - - -
22/07:30am - - - - - SE 28 33 15 18 - - -
22/07:00am - - - - - SE 32 39 17 21 - - -

Other Formats:

Comma delimited format used in spreadsheet applications
http://www.bom.gov.au/fwo/IDW60801/IDW60801.95602.axf

JavaScript Object Notation format (JSON) in row-major order
http://www.bom.gov.au/fwo/IDW60801/IDW60801.95602.json